This is the latest recevied weather packets stored in our database for station/object SV9FBP. If no packets are shown the sender has not sent any weather packets the latest 10 day(s).
| Time | Temp. | Humidity | Pressure | Rain* | Wind** | Luminosity | Snow |
|---|---|---|---|---|---|---|---|
| 1777607474 | 16.11° C | 66% | 1010.6 hPa | 0 mm | - | - | - |
| 1777606571 | 16.11° C | 66% | 1010.7 hPa | 0 mm | - | - | - |
| 1777605670 | 15.56° C | 67% | 1010.6 hPa | 0 mm | - | - | - |
| 1777604768 | 15.56° C | 69% | 1010.5 hPa | 0 mm | - | - | - |
| 1777603865 | 15.56° C | 70% | 1010.6 hPa | 0 mm | - | - | - |
| 1777602963 | 15.56° C | 70% | 1010.8 hPa | 0 mm | - | - | - |
| 1777584906 | 17.78° C | 72% | 1012.4 hPa | 0 mm | - | - | - |
| 1777583105 | 18.33° C | 74% | 1012.6 hPa | 0 mm | - | - | - |
| 1777581298 | 18.33° C | 75% | 1012.5 hPa | 0 mm | - | - | - |
| 1777580396 | 18.33° C | 75% | 1012.9 hPa | 0 mm | - | - | - |
| 1777579493 | 18.89° C | 75% | 1012.9 hPa | 0 mm | - | - | - |
| 1777576787 | 18.89° C | 74% | 1012.8 hPa | 0 mm | - | - | - |
| 1777575885 | 19.44° C | 75% | 1012.9 hPa | 0 mm | - | - | - |
| 1777573178 | 20° C | 75% | 1012.7 hPa | 0 mm | - | - | - |
| 1777572276 | 20° C | 74% | 1012.7 hPa | 0 mm | - | - | - |
| 1777569569 | 20.56° C | 71% | 1012.6 hPa | 0 mm | - | - | - |
| 1777566863 | 21.67° C | 70% | 1012.4 hPa | 0 mm | - | - | - |
| 1777565059 | 22.22° C | 65% | 1012.6 hPa | 0 mm | - | - | - |
| 1777564157 | 22.22° C | 62% | 1012.5 hPa | 0 mm | - | - | - |
| 1777563254 | 22.22° C | 60% | 1012.6 hPa | 0 mm | - | - | - |
| 1777559649 | 23.33° C | 52% | 1012.9 hPa | 0 mm | - | - | - |
| 1777556038 | 23.89° C | 46% | 1012.6 hPa | 0 mm | - | - | - |
| 1777555135 | 23.89° C | 47% | 1012.7 hPa | 0 mm | - | - | - |
| 1777553331 | 24.44° C | 50% | 1013.4 hPa | 0 mm | - | - | - |
| 1777552429 | 24.44° C | 45% | 1013.6 hPa | 0 mm | - | - | - |
* Rain latest hour (hover to see other rain measurements)
** Current wind speed in m/s (hover to see current wind gust speed)